createdAt,value
2022-10-24T00:01:14.636Z,22.47
2022-10-24T00:03:42.071Z,23.57
2022-10-24T00:06:10.600Z,21.50
2022-10-24T00:08:38.736Z,24.40
2022-10-24T00:11:14.707Z,21.50
2022-10-24T00:13:43.074Z,21.50
2022-10-24T00:16:10.724Z,19.03
2022-10-24T00:18:38.069Z,21.10
2022-10-24T00:21:05.566Z,20.33
2022-10-24T00:23:32.467Z,20.70
2022-10-24T00:26:04.332Z,19.83
2022-10-24T00:28:35.795Z,19.17
2022-10-24T00:31:04.042Z,21.23
2022-10-24T00:33:31.206Z,20.67
2022-10-24T00:35:58.434Z,20.13
2022-10-24T00:38:25.545Z,19.67
2022-10-24T00:40:52.562Z,20.03
2022-10-24T00:43:26.557Z,20.50
2022-10-24T00:45:58.620Z,19.17
2022-10-24T00:48:33.418Z,19.77
2022-10-24T00:51:25.378Z,21.87
2022-10-24T00:56:34.984Z,20.70
2022-10-24T00:59:05.185Z,21.27
2022-10-24T01:01:34.122Z,21.47
2022-10-24T01:04:01.815Z,21.73
2022-10-24T01:06:40.311Z,21.77
2022-10-24T01:09:29.159Z,20.57
2022-10-24T01:12:35.149Z,19.17
2022-10-24T01:15:17.268Z,19.83
2022-10-24T01:18:08.872Z,21.17
2022-10-24T01:20:53.686Z,21.57
2022-10-24T01:23:29.469Z,20.33
2022-10-24T01:26:32.777Z,20.60
2022-10-24T01:29:37.148Z,21.40
2022-10-24T01:32:41.952Z,19.83
2022-10-24T01:35:23.189Z,20.93
2022-10-24T01:38:02.628Z,20.57
2022-10-24T01:40:36.704Z,18.90
2022-10-24T01:43:10.143Z,19.63
2022-10-24T01:45:40.419Z,18.93
2022-10-24T01:48:12.174Z,19.00
2022-10-24T01:50:40.864Z,19.93
2022-10-24T01:53:09.046Z,20.03
2022-10-24T01:55:39.118Z,21.63
2022-10-24T01:58:07.588Z,19.63
2022-10-24T02:00:35.081Z,19.77
2022-10-24T02:03:04.122Z,19.97
2022-10-24T02:05:39.826Z,20.73
2022-10-24T02:08:16.976Z,19.37
2022-10-24T02:10:56.006Z,18.00
2022-10-24T02:13:42.270Z,20.30
2022-10-24T02:16:09.809Z,19.07
2022-10-24T02:18:39.548Z,19.60
2022-10-24T02:21:29.737Z,19.27
2022-10-24T02:24:03.091Z,19.43
2022-10-24T02:26:52.744Z,19.30
2022-10-24T02:29:32.289Z,18.93
2022-10-24T02:31:59.606Z,17.57
2022-10-24T02:34:32.239Z,18.13
2022-10-24T02:37:00.882Z,18.83
2022-10-24T02:39:28.406Z,18.73
2022-10-24T02:41:57.390Z,17.60
2022-10-24T02:44:25.943Z,18.57
2022-10-24T02:46:55.512Z,18.70
2022-10-24T02:49:22.404Z,19.00
2022-10-24T02:51:50.963Z,18.10
2022-10-24T02:54:18.209Z,17.77
2022-10-24T02:56:50.738Z,17.67
2022-10-24T02:59:17.755Z,18.20
2022-10-24T03:01:44.686Z,17.53
2022-10-24T03:04:12.269Z,16.50
2022-10-24T03:06:39.102Z,17.83
2022-10-24T03:09:05.943Z,18.07
2022-10-24T03:11:33.038Z,18.70
2022-10-24T03:13:59.936Z,17.63
2022-10-24T03:16:27.778Z,16.70
2022-10-24T03:18:55.170Z,18.93
2022-10-24T03:21:22.666Z,17.97
2022-10-24T03:23:49.885Z,18.10
2022-10-24T03:26:16.976Z,18.53
2022-10-24T03:28:43.822Z,18.90
2022-10-24T03:31:10.987Z,17.47
2022-10-24T03:33:37.763Z,18.80
2022-10-24T03:36:05.575Z,19.23
2022-10-24T03:38:32.489Z,18.47
2022-10-24T03:40:59.620Z,19.23
2022-10-24T03:43:26.697Z,18.53
2022-10-24T03:45:53.499Z,19.90
2022-10-24T03:48:20.343Z,18.87
2022-10-24T03:50:47.211Z,17.57
2022-10-24T03:53:14.048Z,20.60
2022-10-24T03:55:40.872Z,17.60
2022-10-24T03:58:07.738Z,17.40
2022-10-24T04:00:39.349Z,19.60
2022-10-24T04:03:10.809Z,17.13
2022-10-24T04:08:10.331Z,19.70
2022-10-24T04:10:37.217Z,19.00
2022-10-24T04:13:04.206Z,20.43
2022-10-24T04:15:31.284Z,18.70
2022-10-24T04:17:58.458Z,19.90
2022-10-24T04:20:25.596Z,17.63
2022-10-24T04:22:52.875Z,17.90
2022-10-24T04:25:19.858Z,18.83
2022-10-24T04:27:46.782Z,18.20
2022-10-24T04:30:16.525Z,18.90
2022-10-24T04:32:44.766Z,18.90
2022-10-24T04:35:12.419Z,20.00
2022-10-24T04:37:39.421Z,19.97
2022-10-24T04:40:06.941Z,17.90
2022-10-24T04:42:33.976Z,18.80
2022-10-24T04:45:01.033Z,18.70
2022-10-24T04:47:27.944Z,19.70
2022-10-24T04:49:55.054Z,20.37
2022-10-24T04:52:21.892Z,18.37
2022-10-24T04:54:48.722Z,19.23
2022-10-24T04:57:15.766Z,17.60
2022-10-24T04:59:42.785Z,18.80
2022-10-24T05:02:09.757Z,18.53
2022-10-24T05:04:36.829Z,17.53
2022-10-24T05:07:04.018Z,17.40
2022-10-24T05:09:31.209Z,18.27
2022-10-24T05:11:58.359Z,17.53
2022-10-24T05:14:25.544Z,17.37
2022-10-24T05:16:52.577Z,16.43
2022-10-24T05:19:19.862Z,19.47
2022-10-24T05:21:47.129Z,16.77
2022-10-24T05:24:14.018Z,17.60
2022-10-24T05:26:40.958Z,16.40
2022-10-24T05:31:40.017Z,17.93
2022-10-24T05:34:06.900Z,15.83
2022-10-24T05:36:34.187Z,17.30
2022-10-24T05:39:00.970Z,17.23
2022-10-24T05:41:27.868Z,17.40
2022-10-24T05:43:54.826Z,17.13
2022-10-24T05:46:22.143Z,17.63
2022-10-24T05:48:49.044Z,17.57
2022-10-24T05:51:16.113Z,16.33
2022-10-24T05:53:42.961Z,17.17
2022-10-24T05:56:10.289Z,17.43
2022-10-24T05:58:37.192Z,17.73
2022-10-24T06:01:04.257Z,16.00
2022-10-24T06:03:31.281Z,18.53
2022-10-24T06:05:58.338Z,16.97
2022-10-24T06:08:25.374Z,16.80
2022-10-24T06:10:53.650Z,17.10
2022-10-24T06:13:20.623Z,16.00
2022-10-24T06:15:47.600Z,16.07
2022-10-24T06:18:14.376Z,15.87
2022-10-24T06:20:41.311Z,16.30
2022-10-24T06:23:08.127Z,15.43
2022-10-24T06:25:35.041Z,14.73
2022-10-24T06:28:01.866Z,15.33
2022-10-24T06:30:28.896Z,15.30
2022-10-24T06:32:55.694Z,14.80
2022-10-24T06:35:22.703Z,15.30
2022-10-24T06:37:50.237Z,14.50
2022-10-24T06:40:18.538Z,15.03
2022-10-24T06:42:46.042Z,14.23
2022-10-24T06:45:13.463Z,13.80
2022-10-24T06:47:40.566Z,11.40
2022-10-24T06:50:09.613Z,11.93
2022-10-24T06:52:37.328Z,11.00
2022-10-24T06:55:04.896Z,11.23
2022-10-24T06:57:31.996Z,10.67
2022-10-24T06:59:58.960Z,10.10
2022-10-24T07:02:25.965Z,9.40
2022-10-24T07:04:53.009Z,11.00
2022-10-24T07:07:21.636Z,9.73
2022-10-24T07:09:54.385Z,9.50
2022-10-24T07:12:22.817Z,9.63
2022-10-24T07:14:50.551Z,9.10
2022-10-24T07:17:19.122Z,8.43
2022-10-24T07:19:46.197Z,9.82
2022-10-24T07:22:13.116Z,9.18
2022-10-24T07:24:40.005Z,8.95
2022-10-24T07:27:06.880Z,9.23
2022-10-24T07:29:33.731Z,11.45
2022-10-24T07:32:02.006Z,9.33
2022-10-24T07:34:28.980Z,9.60
2022-10-24T07:36:56.084Z,9.63
2022-10-24T07:39:22.879Z,8.63
2022-10-24T07:41:49.772Z,9.20
2022-10-24T07:44:16.556Z,9.07
2022-10-24T07:46:43.447Z,8.73
2022-10-24T07:49:10.645Z,8.50
2022-10-24T07:51:37.524Z,9.25
2022-10-24T07:54:04.702Z,8.98
2022-10-24T07:56:31.745Z,10.25
2022-10-24T07:59:05.788Z,9.38
2022-10-24T08:01:36.498Z,9.00
2022-10-24T08:04:03.531Z,9.57
2022-10-24T08:06:31.199Z,10.02
2022-10-24T08:08:58.762Z,9.35
2022-10-24T08:11:27.635Z,9.13
2022-10-24T08:13:57.338Z,8.30
2022-10-24T08:16:25.708Z,10.57
2022-10-24T08:18:55.423Z,9.77
2022-10-24T08:21:23.854Z,9.52
2022-10-24T08:23:53.072Z,9.38
2022-10-24T08:26:22.227Z,9.38
2022-10-24T08:28:49.766Z,9.48
2022-10-24T08:31:25.927Z,9.32
2022-10-24T08:33:54.917Z,9.52
2022-10-24T08:36:27.982Z,9.25
2022-10-24T08:38:55.999Z,9.23
2022-10-24T08:41:26.030Z,9.35
2022-10-24T08:43:55.889Z,9.07
2022-10-24T08:46:37.401Z,9.93
2022-10-24T08:49:54.561Z,9.57
2022-10-24T08:52:44.964Z,10.45
2022-10-24T08:55:36.965Z,9.45
2022-10-24T08:58:06.175Z,9.43
2022-10-24T09:00:39.645Z,8.75
2022-10-24T09:03:58.750Z,9.18
2022-10-24T09:06:28.813Z,11.48
2022-10-24T09:09:02.076Z,9.70
2022-10-24T09:11:52.497Z,8.32
2022-10-24T09:14:20.881Z,8.63
2022-10-24T09:16:54.577Z,8.95
2022-10-24T09:19:25.041Z,9.50
2022-10-24T09:21:54.850Z,8.48
2022-10-24T09:24:34.085Z,9.35
2022-10-24T09:27:04.533Z,9.07
2022-10-24T09:29:33.556Z,9.32
2022-10-24T09:32:02.105Z,8.90
2022-10-24T09:34:28.978Z,8.48
2022-10-24T09:36:56.054Z,8.15
2022-10-24T09:39:29.945Z,7.68
2022-10-24T09:41:58.277Z,7.90
2022-10-24T09:44:32.024Z,8.73
2022-10-24T09:46:59.634Z,8.10
2022-10-24T09:49:35.503Z,7.70
2022-10-24T09:52:17.441Z,8.57
2022-10-24T09:54:45.252Z,8.30
2022-10-24T09:57:12.171Z,8.07
2022-10-24T09:59:44.317Z,8.23
2022-10-24T10:02:12.805Z,8.77
2022-10-24T10:04:41.312Z,8.88
2022-10-24T10:07:20.007Z,7.78
2022-10-24T10:09:56.523Z,8.65
2022-10-24T10:12:39.814Z,8.15
2022-10-24T10:15:30.495Z,8.55
2022-10-24T10:18:05.155Z,8.70
2022-10-24T10:20:42.799Z,9.27
2022-10-24T10:23:31.652Z,7.40
2022-10-24T10:26:16.673Z,7.80
2022-10-24T10:28:57.353Z,7.53
2022-10-24T10:31:41.139Z,8.38
2022-10-24T10:34:21.202Z,7.53
2022-10-24T10:36:54.208Z,8.07
2022-10-24T10:39:28.044Z,8.15
2022-10-24T10:42:09.309Z,7.45
2022-10-24T10:44:57.159Z,6.97
2022-10-24T10:47:26.790Z,7.82
2022-10-24T10:49:57.935Z,8.48
2022-10-24T10:52:30.903Z,8.30
2022-10-24T10:55:40.780Z,7.78
2022-10-24T10:58:13.398Z,8.07
2022-10-24T11:00:48.372Z,8.95
2022-10-24T11:03:49.593Z,8.05
2022-10-24T11:06:52.058Z,8.73
2022-10-24T11:09:27.279Z,7.10
2022-10-24T11:12:12.331Z,7.40
2022-10-24T11:15:04.974Z,7.45
2022-10-24T11:17:53.419Z,7.40
2022-10-24T11:20:43.791Z,7.13
2022-10-24T11:23:16.543Z,6.57
2022-10-24T11:25:50.570Z,7.68
2022-10-24T11:28:17.267Z,8.10
2022-10-24T11:30:51.876Z,7.15
2022-10-24T11:33:25.128Z,7.18
2022-10-24T11:36:07.934Z,7.82
2022-10-24T11:38:42.269Z,7.15
2022-10-24T11:41:27.579Z,6.75
2022-10-24T11:43:59.027Z,6.80
2022-10-24T11:46:34.731Z,6.53
2022-10-24T11:49:17.378Z,6.97
2022-10-24T11:51:50.995Z,5.72
2022-10-24T11:54:25.346Z,6.32
2022-10-24T11:56:56.276Z,5.68
2022-10-24T11:59:24.520Z,6.28
2022-10-24T12:02:35.090Z,6.63
2022-10-24T12:05:42.058Z,6.25
2022-10-24T12:08:34.107Z,6.40
2022-10-24T12:11:39.048Z,6.03
2022-10-24T12:14:23.104Z,6.13
2022-10-24T12:17:08.152Z,5.57
2022-10-24T12:19:39.491Z,5.68
2022-10-24T12:22:07.304Z,6.10
2022-10-24T12:24:38.718Z,5.55
2022-10-24T12:27:27.376Z,5.65
2022-10-24T12:30:18.356Z,6.15
2022-10-24T12:32:59.920Z,5.68
2022-10-24T12:35:36.030Z,5.25
2022-10-24T12:38:34.614Z,5.13
2022-10-24T12:41:09.300Z,5.88
2022-10-24T12:43:38.413Z,5.70
2022-10-24T12:46:21.893Z,5.13
2022-10-24T12:48:59.415Z,5.65
2022-10-24T12:51:36.708Z,5.18
2022-10-24T12:54:03.622Z,5.22
2022-10-24T12:56:33.532Z,5.15
2022-10-24T12:59:03.035Z,5.15
2022-10-24T13:01:37.784Z,6.15
2022-10-24T13:04:34.376Z,5.03
2022-10-24T13:07:15.598Z,5.55
2022-10-24T13:10:00.915Z,6.13
2022-10-24T13:12:40.466Z,5.95
2022-10-24T13:15:44.410Z,4.60
2022-10-24T13:18:19.704Z,5.57
2022-10-24T13:20:51.796Z,5.25
2022-10-24T13:23:25.010Z,5.53
2022-10-24T13:25:57.177Z,4.68
2022-10-24T13:28:23.932Z,4.88
2022-10-24T13:30:54.762Z,5.10
2022-10-24T13:33:33.681Z,5.10
2022-10-24T13:36:09.875Z,5.07
2022-10-24T13:39:10.093Z,4.95
2022-10-24T13:41:42.149Z,5.20
2022-10-24T13:44:12.030Z,5.00
2022-10-24T13:46:47.984Z,5.53
2022-10-24T13:49:42.370Z,5.10
2022-10-24T13:52:38.493Z,5.22
2022-10-24T13:55:18.619Z,5.03
2022-10-24T13:58:02.034Z,5.30
2022-10-24T14:00:36.380Z,4.97
2022-10-24T14:03:17.065Z,4.55
2022-10-24T14:05:59.961Z,5.15
2022-10-24T14:08:33.539Z,5.70
2022-10-24T14:11:04.792Z,5.78
2022-10-24T14:13:45.857Z,5.10
2022-10-24T14:16:13.065Z,5.85
2022-10-24T14:18:41.435Z,6.15
2022-10-24T14:21:21.867Z,4.55
2022-10-24T14:23:57.502Z,5.18
2022-10-24T14:26:25.372Z,4.88
2022-10-24T14:29:00.069Z,5.30
2022-10-24T14:31:34.784Z,5.32
2022-10-24T14:34:05.916Z,5.90
2022-10-24T14:36:37.835Z,5.75
2022-10-24T14:39:05.888Z,6.20
2022-10-24T14:41:38.068Z,7.13
2022-10-24T14:44:06.075Z,5.35
2022-10-24T14:46:44.039Z,5.97
2022-10-24T14:49:26.070Z,5.85
2022-10-24T14:51:54.852Z,6.05
2022-10-24T14:54:24.068Z,5.68
2022-10-24T14:56:53.725Z,7.05
2022-10-24T14:59:27.952Z,7.82
2022-10-24T15:02:01.267Z,6.45
2022-10-24T15:04:51.306Z,6.60
2022-10-24T15:07:28.830Z,6.45
2022-10-24T15:09:58.865Z,7.57
2022-10-24T15:12:30.999Z,7.53
2022-10-24T15:15:22.329Z,7.25
2022-10-24T15:17:58.926Z,9.55
2022-10-24T15:20:29.934Z,8.48
2022-10-24T15:23:00.836Z,8.48
2022-10-24T15:25:40.673Z,8.50
2022-10-24T15:28:49.658Z,8.30
2022-10-24T15:31:19.963Z,8.77
2022-10-24T15:33:47.923Z,9.88
2022-10-24T15:36:21.020Z,9.50
2022-10-24T15:38:48.672Z,9.10
2022-10-24T15:41:16.245Z,9.65
2022-10-24T15:43:42.979Z,9.93
2022-10-24T15:46:09.715Z,8.63
2022-10-24T15:48:38.897Z,9.77
2022-10-24T15:51:06.158Z,9.55
2022-10-24T15:53:33.377Z,11.07
2022-10-24T15:56:00.136Z,12.77
2022-10-24T15:58:28.754Z,16.30
2022-10-24T16:00:55.713Z,19.33
2022-10-24T16:03:24.354Z,31.23
2022-10-24T16:05:55.263Z,36.60
2022-10-24T16:08:23.404Z,13.85
2022-10-24T16:10:51.862Z,12.13
2022-10-24T16:13:21.002Z,13.15
2022-10-24T16:15:48.682Z,18.08
2022-10-24T16:18:17.197Z,21.33
2022-10-24T16:20:44.015Z,19.92
2022-10-24T16:23:13.895Z,17.25
2022-10-24T16:25:40.855Z,16.92
2022-10-24T16:28:08.228Z,15.63
2022-10-24T16:30:38.918Z,15.57
2022-10-24T16:33:06.420Z,18.48
2022-10-24T16:35:36.286Z,17.52
2022-10-24T16:38:04.268Z,14.80
2022-10-24T16:40:31.347Z,15.60
2022-10-24T16:42:59.784Z,14.20
2022-10-24T16:45:26.841Z,15.15
2022-10-24T16:47:53.656Z,15.27
2022-10-24T16:50:24.414Z,14.57
2022-10-24T16:53:03.345Z,15.10
2022-10-24T16:55:31.385Z,15.02
2022-10-24T16:57:58.823Z,13.93
2022-10-24T17:00:26.191Z,15.57
2022-10-24T17:02:54.928Z,12.82
2022-10-24T17:05:24.574Z,14.02
2022-10-24T17:07:51.486Z,12.40
2022-10-24T17:10:20.771Z,13.52
2022-10-24T17:12:51.324Z,13.93
2022-10-24T17:15:22.085Z,13.82
2022-10-24T17:17:49.866Z,13.40
2022-10-24T17:20:17.690Z,13.23
2022-10-24T17:22:46.318Z,13.82
2022-10-24T17:25:26.514Z,13.02
2022-10-24T17:27:54.665Z,13.20
2022-10-24T17:30:24.307Z,12.80
2022-10-24T17:32:51.303Z,13.10
2022-10-24T17:35:20.672Z,12.82
2022-10-24T17:37:56.212Z,12.27
2022-10-24T17:40:26.866Z,13.07
2022-10-24T17:42:53.819Z,10.73
2022-10-24T17:45:23.679Z,11.70
2022-10-24T17:47:50.716Z,10.75
2022-10-24T17:50:18.414Z,9.70
2022-10-24T17:52:50.782Z,10.07
2022-10-24T17:55:46.355Z,9.45
2022-10-24T17:58:13.860Z,10.55
2022-10-24T18:00:41.132Z,9.98
2022-10-24T18:03:08.692Z,9.70
2022-10-24T18:05:38.039Z,8.88
2022-10-24T18:08:07.538Z,10.23
2022-10-24T18:10:36.504Z,8.88
2022-10-24T18:13:03.418Z,9.10
2022-10-24T18:15:30.148Z,8.20
2022-10-24T18:17:56.955Z,7.72
2022-10-24T18:20:23.969Z,7.40
2022-10-24T18:22:51.114Z,8.52
2022-10-24T18:25:22.701Z,9.45
2022-10-24T18:27:51.131Z,8.68
2022-10-24T18:30:21.523Z,8.88
2022-10-24T18:32:48.735Z,8.00
2022-10-24T18:35:15.846Z,7.05
2022-10-24T18:37:42.691Z,8.63
2022-10-24T18:40:10.331Z,7.65
2022-10-24T18:42:43.886Z,7.10
2022-10-24T18:45:17.196Z,7.20
2022-10-24T18:47:44.663Z,6.68
2022-10-24T18:50:16.472Z,8.73
2022-10-24T18:52:43.404Z,7.13
2022-10-24T18:55:21.750Z,7.50
2022-10-24T18:57:50.271Z,7.28
2022-10-24T19:00:23.256Z,7.03
2022-10-24T19:03:04.976Z,8.25
2022-10-24T19:05:37.679Z,7.60
2022-10-24T19:08:14.951Z,6.97
2022-10-24T19:10:42.410Z,8.10
2022-10-24T19:13:09.914Z,7.20
2022-10-24T19:15:40.182Z,8.23
2022-10-24T19:18:13.881Z,7.05
2022-10-24T19:20:42.324Z,6.82
2022-10-24T19:23:14.460Z,8.45
2022-10-24T19:25:41.739Z,7.78
2022-10-24T19:28:12.035Z,7.65
2022-10-24T19:30:42.331Z,7.43
2022-10-24T19:33:09.590Z,7.78
2022-10-24T19:35:45.189Z,8.77
2022-10-24T19:38:12.102Z,8.43
2022-10-24T19:40:54.227Z,8.05
2022-10-24T19:43:22.530Z,8.27
2022-10-24T19:46:07.180Z,7.85
2022-10-24T19:48:36.861Z,8.27
2022-10-24T19:51:13.342Z,8.38
2022-10-24T19:53:42.697Z,7.30
2022-10-24T19:56:12.821Z,8.48
2022-10-24T19:58:40.278Z,8.75
2022-10-24T20:01:15.789Z,8.32
2022-10-24T20:03:45.230Z,7.78
2022-10-24T20:06:12.932Z,8.15
2022-10-24T20:08:39.963Z,8.20
2022-10-24T20:11:07.575Z,9.18
2022-10-24T20:13:34.435Z,8.75
2022-10-24T20:16:04.993Z,8.57
2022-10-24T20:18:33.511Z,8.70
2022-10-24T20:21:04.035Z,9.13
2022-10-24T20:23:31.271Z,9.82
2022-10-24T20:26:01.961Z,9.75
2022-10-24T20:28:28.990Z,10.30
2022-10-24T20:30:56.154Z,10.23
2022-10-24T20:33:22.971Z,8.63
2022-10-24T20:35:49.682Z,9.10
2022-10-24T20:38:16.475Z,9.00
2022-10-24T20:40:43.245Z,9.45
2022-10-24T20:43:10.280Z,8.65
2022-10-24T20:45:40.884Z,10.82
2022-10-24T20:48:08.193Z,8.85
2022-10-24T20:50:35.805Z,9.93
2022-10-24T20:53:03.763Z,11.48
2022-10-24T20:55:43.426Z,10.02
2022-10-24T20:58:14.300Z,10.07
2022-10-24T21:03:12.164Z,9.27
2022-10-24T21:05:39.433Z,9.32
2022-10-24T21:08:06.948Z,8.75
2022-10-24T21:10:34.269Z,9.25
2022-10-24T21:13:01.226Z,8.95
2022-10-24T21:15:27.971Z,8.60
2022-10-24T21:17:54.888Z,8.88
2022-10-24T21:20:21.727Z,8.85
2022-10-24T21:22:48.557Z,8.10
2022-10-24T21:25:15.467Z,9.35
2022-10-24T21:27:42.205Z,8.02
2022-10-24T21:30:14.281Z,7.82
2022-10-24T21:32:42.229Z,9.55
2022-10-24T21:35:10.448Z,9.27
2022-10-24T21:37:37.298Z,8.45
2022-10-24T21:40:04.733Z,8.23
2022-10-24T21:42:33.153Z,10.93
2022-10-24T21:45:00.645Z,9.35
2022-10-24T21:47:28.399Z,9.70
2022-10-24T21:49:55.202Z,8.23
2022-10-24T21:52:22.088Z,8.55
2022-10-24T21:54:48.810Z,8.43
2022-10-24T21:57:15.717Z,9.77
2022-10-24T21:59:42.612Z,9.57
2022-10-24T22:02:09.668Z,9.80
2022-10-24T22:04:36.731Z,10.07
2022-10-24T22:07:05.941Z,9.25
2022-10-24T22:09:32.893Z,11.02
2022-10-24T22:12:00.703Z,9.48
2022-10-24T22:14:27.676Z,9.15
2022-10-24T22:16:54.955Z,9.75
2022-10-24T22:19:22.022Z,10.20
2022-10-24T22:21:51.033Z,9.10
2022-10-24T22:24:21.175Z,8.77
2022-10-24T22:26:49.439Z,8.75
2022-10-24T22:29:20.194Z,9.80
2022-10-24T22:31:47.745Z,9.63
2022-10-24T22:34:21.014Z,8.65
2022-10-24T22:37:12.831Z,10.45
2022-10-24T22:39:40.707Z,9.68
2022-10-24T22:42:12.412Z,9.38
2022-10-24T22:44:42.225Z,10.57
2022-10-24T22:47:13.131Z,9.32
2022-10-24T22:49:46.071Z,9.65
2022-10-24T22:52:13.479Z,8.63
2022-10-24T22:54:40.811Z,9.93
2022-10-24T22:57:08.134Z,8.68
2022-10-24T22:59:35.317Z,9.88
2022-10-24T23:02:14.261Z,9.27
2022-10-24T23:04:47.270Z,8.20
2022-10-24T23:07:27.705Z,8.82
2022-10-24T23:09:55.109Z,8.38
2022-10-24T23:12:22.791Z,9.25
2022-10-24T23:14:50.708Z,8.20
2022-10-24T23:17:26.046Z,9.43
2022-10-24T23:19:53.888Z,9.55
2022-10-24T23:22:27.460Z,10.05
2022-10-24T23:24:59.832Z,9.50
2022-10-24T23:27:40.755Z,8.73
2022-10-24T23:30:17.006Z,7.90
2022-10-24T23:32:44.963Z,8.30
2022-10-24T23:35:17.646Z,8.55
2022-10-24T23:37:52.403Z,8.30
2022-10-24T23:40:35.212Z,9.13
2022-10-24T23:43:04.185Z,9.25
2022-10-24T23:45:55.603Z,9.05
2022-10-24T23:48:51.679Z,8.68
2022-10-24T23:51:31.072Z,8.90
2022-10-24T23:53:58.583Z,8.65
2022-10-24T23:56:28.431Z,8.10
2022-10-24T23:58:55.860Z,8.82
